SWR8GY EDDF-LSGG
Flight info
| Callsign | SWR8GY |
|---|---|
| Flight time | N/A |
| Altitude | 29000 |
| Route | ANEKI2L/18 ANEKI Y163 HERBI Y164 MOPAN LUTIX BENOT BENO2R |
| Aircraft | A320/M-SDE3FGHIRWY/LB1 |
Departure
| Time | 2026-05-05 16:39 |
|---|---|
| Airport | Frankfurt Main Airport (EDDF) |
Arrival
| Time | N/A |
|---|---|
| Airport | Geneva International Airport (LSGG) |
| Time | Latitude | Longitude | Altitude | Speed | Heading |
|---|---|---|---|---|---|
| 2026-05-05 15:54 | 50.04391 | 8.57032 | 360 ft | 0 kts | 159° |
| 2026-05-05 16:27 | 50.04375 | 8.57042 | 366 ft | 1 kts | 160° |
| 2026-05-05 16:27 | 50.04347 | 8.57058 | 362 ft | 5 kts | 160° |
| 2026-05-05 16:28 | 50.04340 | 8.57061 | 365 ft | 0 kts | 161° |
| 2026-05-05 16:28 | 50.04329 | 8.57082 | 366 ft | 9 kts | 118° |
| 2026-05-05 16:28 | 50.04339 | 8.57166 | 361 ft | 7 kts | 70° |
| 2026-05-05 16:28 | 50.04346 | 8.57197 | 365 ft | 11 kts | 70° |
| 2026-05-05 16:29 | 50.04363 | 8.57269 | 364 ft | 12 kts | 69° |
| 2026-05-05 16:29 | 50.04386 | 8.57366 | 364 ft | 9 kts | 70° |
| 2026-05-05 16:29 | 50.04411 | 8.57468 | 361 ft | 8 kts | 69° |
| 2026-05-05 16:29 | 50.04447 | 8.57547 | 362 ft | 11 kts | 31° |
| 2026-05-05 16:30 | 50.04501 | 8.57557 | 364 ft | 8 kts | 350° |
| 2026-05-05 16:30 | 50.04537 | 8.57532 | 363 ft | 3 kts | 334° |
| 2026-05-05 16:30 | 50.04541 | 8.57529 | 362 ft | 0 kts | 335° |
| 2026-05-05 16:31 | 50.04568 | 8.57511 | 361 ft | 6 kts | 340° |
| 2026-05-05 16:31 | 50.04598 | 8.57451 | 358 ft | 10 kts | 269° |
| 2026-05-05 16:31 | 50.04575 | 8.57346 | 360 ft | 11 kts | 250° |
| 2026-05-05 16:32 | 50.04545 | 8.57220 | 359 ft | 13 kts | 250° |
| 2026-05-05 16:32 | 50.04515 | 8.57092 | 358 ft | 10 kts | 250° |
| 2026-05-05 16:32 | 50.04505 | 8.57050 | 359 ft | 0 kts | 249° |
| 2026-05-05 16:32 | 50.04497 | 8.57017 | 361 ft | 11 kts | 250° |
| 2026-05-05 16:33 | 50.04467 | 8.56890 | 362 ft | 16 kts | 250° |
| 2026-05-05 16:33 | 50.04421 | 8.56699 | 360 ft | 20 kts | 248° |
| 2026-05-05 16:33 | 50.04374 | 8.56500 | 358 ft | 20 kts | 250° |
| 2026-05-05 16:33 | 50.04326 | 8.56301 | 359 ft | 20 kts | 250° |
| 2026-05-05 16:34 | 50.04279 | 8.56104 | 361 ft | 20 kts | 249° |
| 2026-05-05 16:34 | 50.04231 | 8.55904 | 357 ft | 20 kts | 249° |
| 2026-05-05 16:34 | 50.04182 | 8.55700 | 356 ft | 20 kts | 250° |
| 2026-05-05 16:34 | 50.04133 | 8.55494 | 355 ft | 21 kts | 250° |
| 2026-05-05 16:35 | 50.04083 | 8.55285 | 355 ft | 20 kts | 249° |
| 2026-05-05 16:35 | 50.04034 | 8.55082 | 359 ft | 20 kts | 250° |
| 2026-05-05 16:35 | 50.03984 | 8.54870 | 353 ft | 22 kts | 249° |
| 2026-05-05 16:35 | 50.03929 | 8.54641 | 353 ft | 23 kts | 249° |
| 2026-05-05 16:36 | 50.03871 | 8.54400 | 348 ft | 23 kts | 246° |
| 2026-05-05 16:36 | 50.03792 | 8.54184 | 353 ft | 24 kts | 250° |
| 2026-05-05 16:36 | 50.03731 | 8.53938 | 349 ft | 25 kts | 249° |
| 2026-05-05 16:36 | 50.03669 | 8.53678 | 346 ft | 26 kts | 249° |
| 2026-05-05 16:37 | 50.03603 | 8.53413 | 336 ft | 25 kts | 250° |
| 2026-05-05 16:37 | 50.03546 | 8.53175 | 334 ft | 22 kts | 250° |
| 2026-05-05 16:37 | 50.03496 | 8.52965 | 337 ft | 20 kts | 249° |
| 2026-05-05 16:37 | 50.03443 | 8.52773 | 333 ft | 18 kts | 246° |
| 2026-05-05 16:38 | 50.03407 | 8.52627 | 335 ft | 13 kts | 244° |
| 2026-05-05 16:38 | 50.03351 | 8.52594 | 336 ft | 10 kts | 179° |
| 2026-05-05 16:38 | 50.03160 | 8.52595 | 335 ft | 56 kts | 180° |
| 2026-05-05 16:38 | 50.02536 | 8.52602 | 335 ft | 121 kts | 179° |
| 2026-05-05 16:39 | 50.01517 | 8.52613 | 347 ft | 170 kts | 179° |
| 2026-05-05 16:39 | 50.00331 | 8.52626 | 978 ft | 169 kts | 183° |
| 2026-05-05 16:39 | 49.99158 | 8.52681 | 1726 ft | 171 kts | 181° |
| 2026-05-05 16:39 | 49.97910 | 8.52762 | 2112 ft | 192 kts | 180° |
| 2026-05-05 16:40 | 49.96494 | 8.52859 | 2420 ft | 216 kts | 180° |
| 2026-05-05 16:40 | 49.94958 | 8.53470 | 2823 ft | 245 kts | 152° |
| 2026-05-05 16:40 | 49.93682 | 8.55367 | 3446 ft | 264 kts | 127° |
| 2026-05-05 16:40 | 49.92669 | 8.57775 | 4345 ft | 269 kts | 124° |
| 2026-05-05 16:41 | 49.91677 | 8.60260 | 5282 ft | 272 kts | 124° |
| 2026-05-05 16:41 | 49.90675 | 8.62768 | 6230 ft | 275 kts | 124° |
| 2026-05-05 16:41 | 49.89585 | 8.65216 | 7105 ft | 277 kts | 135° |
| 2026-05-05 16:41 | 49.88058 | 8.67006 | 8000 ft | 276 kts | 152° |
| 2026-05-05 16:42 | 49.86367 | 8.68432 | 8938 ft | 277 kts | 153° |
| 2026-05-05 16:42 | 49.84653 | 8.69813 | 9852 ft | 279 kts | 154° |
| 2026-05-05 16:42 | 49.82870 | 8.71229 | 10252 ft | 300 kts | 154° |
| 2026-05-05 16:42 | 49.80948 | 8.72751 | 10621 ft | 318 kts | 154° |
| 2026-05-05 16:43 | 49.78954 | 8.74324 | 11307 ft | 324 kts | 154° |
| 2026-05-05 16:43 | 49.76944 | 8.75905 | 12254 ft | 321 kts | 154° |
| 2026-05-05 16:43 | 49.74973 | 8.77452 | 13316 ft | 315 kts | 154° |
| 2026-05-05 16:43 | 49.73037 | 8.78973 | 14234 ft | 311 kts | 154° |
| 2026-05-05 16:44 | 49.71104 | 8.80484 | 15069 ft | 308 kts | 154° |
| 2026-05-05 16:44 | 49.69199 | 8.81969 | 15932 ft | 306 kts | 154° |
| 2026-05-05 16:44 | 49.67288 | 8.83452 | 16635 ft | 308 kts | 154° |
| 2026-05-05 16:44 | 49.65361 | 8.84944 | 17336 ft | 311 kts | 154° |
| 2026-05-05 16:45 | 49.63733 | 8.86202 | 17917 ft | 313 kts | 154° |